Jordao, Brazil
Current Conditions -  °F | °C
As of 11:00 AM on Friday 24 Oct 2014 (Local Time) from SBCZ Reporting Station
Few Clouds Few Clouds  
Wind Chill: 90°   Ceiling: Unl
Heat Index: 102°   Visibility: 6mi
Dew Point: 77°   Wind: 5mph
Humidity: 66%   Direction: 310°NW
Pressure: 29.88"   Gusts: NA
Location:  9.43°S, 71.88°W
Report Text: SBCZ 241500Z 31004KT 9999 FEW015 32/25 Q1012
Loading
Personal Weather Stations






























Interactive Weather Map
Tropical Storm Tracking
New forecast layout! Learn more

10-Day Weather Forecast

Advertisements
Track Severe Weather on mobile